createdAt,value
2019-01-11T00:01:27.432Z,84.70
2019-01-11T00:03:54.804Z,84.20
2019-01-11T00:06:22.196Z,84.61
2019-01-11T00:08:49.558Z,85.18
2019-01-11T00:11:16.955Z,85.38
2019-01-11T00:13:44.333Z,85.35
2019-01-11T00:16:11.741Z,85.20
2019-01-11T00:18:39.106Z,85.15
2019-01-11T00:21:07.138Z,84.50
2019-01-11T00:23:34.505Z,84.06
2019-01-11T00:26:01.875Z,84.20
2019-01-11T00:28:29.260Z,83.46
2019-01-11T00:30:56.745Z,77.32
2019-01-11T00:33:24.221Z,74.38
2019-01-11T00:35:51.569Z,79.00
2019-01-11T00:38:18.954Z,81.17
2019-01-11T00:40:46.331Z,82.69
2019-01-11T00:43:15.116Z,83.35
2019-01-11T00:45:42.794Z,83.67
2019-01-11T00:48:10.172Z,83.72
2019-01-11T00:50:37.694Z,83.78
2019-01-11T00:53:05.071Z,84.18
2019-01-11T00:55:32.624Z,81.69
2019-01-11T00:57:59.971Z,80.68
2019-01-11T01:00:27.642Z,80.95
2019-01-11T01:02:55.010Z,82.16
2019-01-11T01:05:22.366Z,83.13
2019-01-11T01:07:49.974Z,83.51
2019-01-11T01:10:19.163Z,83.40
2019-01-11T01:12:46.577Z,82.79
2019-01-11T01:15:14.122Z,83.48
2019-01-11T01:17:41.533Z,82.70
2019-01-11T01:20:09.821Z,82.93
2019-01-11T01:22:37.191Z,83.03
2019-01-11T01:25:05.067Z,83.63
2019-01-11T01:27:32.443Z,83.26
2019-01-11T01:29:59.863Z,82.53
2019-01-11T01:32:27.214Z,81.35
2019-01-11T01:34:54.598Z,78.86
2019-01-11T01:37:21.959Z,78.45
2019-01-11T01:39:49.313Z,80.61
2019-01-11T01:42:16.709Z,79.45
2019-01-11T01:44:44.063Z,80.81
2019-01-11T01:47:11.421Z,80.37
2019-01-11T01:49:38.800Z,80.80
2019-01-11T01:52:06.479Z,80.39
2019-01-11T01:54:33.884Z,81.68
2019-01-11T01:57:01.231Z,82.85
2019-01-11T01:59:28.606Z,82.92
2019-01-11T02:01:55.968Z,83.37
2019-01-11T02:04:23.371Z,83.08
2019-01-11T02:06:51.018Z,83.08
2019-01-11T02:09:18.369Z,82.53
2019-01-11T02:11:45.809Z,81.84
2019-01-11T02:14:13.236Z,81.85
2019-01-11T02:16:40.648Z,82.08
2019-01-11T02:19:08.017Z,83.37
2019-01-11T02:21:35.450Z,83.10
2019-01-11T02:24:02.897Z,83.63
2019-01-11T02:26:30.302Z,84.12
2019-01-11T02:28:57.639Z,83.75
2019-01-11T02:31:25.002Z,83.31
2019-01-11T02:33:52.861Z,83.49
2019-01-11T02:36:20.222Z,83.41
2019-01-11T02:38:47.614Z,83.70
2019-01-11T02:41:14.973Z,83.12
2019-01-11T02:43:42.365Z,82.00
2019-01-11T02:46:09.729Z,83.27
2019-01-11T02:48:37.112Z,82.90
2019-01-11T02:51:04.507Z,82.91
2019-01-11T02:53:31.866Z,82.75
2019-01-11T02:55:59.268Z,83.17
2019-01-11T02:58:26.665Z,82.30
2019-01-11T03:00:54.001Z,81.94
2019-01-11T03:03:21.371Z,81.72
2019-01-11T03:05:48.738Z,81.79
2019-01-11T03:08:16.197Z,81.67
2019-01-11T03:10:43.732Z,81.20
2019-01-11T03:13:11.086Z,82.13
2019-01-11T03:15:38.461Z,82.12
2019-01-11T03:18:05.855Z,83.08
2019-01-11T03:20:33.194Z,82.48
2019-01-11T03:23:00.540Z,81.12
2019-01-11T03:25:27.975Z,80.59
2019-01-11T03:27:55.344Z,81.02
2019-01-11T03:30:22.764Z,81.31
2019-01-11T03:32:50.227Z,81.49
2019-01-11T03:35:21.936Z,81.91
2019-01-11T03:37:49.764Z,82.18
2019-01-11T03:40:18.545Z,82.82
2019-01-11T03:42:46.024Z,82.51
2019-01-11T03:45:14.186Z,82.92
2019-01-11T03:47:41.631Z,83.77
2019-01-11T03:50:09.286Z,83.09
2019-01-11T03:52:36.756Z,83.56
2019-01-11T03:55:05.344Z,82.77
2019-01-11T03:57:32.688Z,83.02
2019-01-11T04:00:00.110Z,82.96
2019-01-11T04:02:27.771Z,83.33
2019-01-11T04:04:55.138Z,83.21
2019-01-11T04:07:22.790Z,83.36
2019-01-11T04:09:50.130Z,82.45
2019-01-11T04:12:17.480Z,82.66
2019-01-11T04:14:44.858Z,82.59
2019-01-11T04:17:12.476Z,83.11
2019-01-11T04:19:39.819Z,81.51
2019-01-11T04:22:25.952Z,81.80
2019-01-11T04:25:03.044Z,81.64
2019-01-11T04:27:30.418Z,81.88
2019-01-11T04:29:57.801Z,82.92
2019-01-11T04:32:25.175Z,83.02
2019-01-11T04:34:52.517Z,82.10
2019-01-11T04:37:19.884Z,82.74
2019-01-11T04:39:47.316Z,82.15
2019-01-11T04:42:14.784Z,82.36
2019-01-11T04:44:42.463Z,82.32
2019-01-11T04:47:09.808Z,82.17
2019-01-11T04:49:37.690Z,82.54
2019-01-11T04:52:05.093Z,82.35
2019-01-11T04:54:32.460Z,82.77
2019-01-11T04:56:59.915Z,82.66
2019-01-11T04:59:27.273Z,83.10
2019-01-11T05:01:54.700Z,82.58
2019-01-11T05:04:22.108Z,82.74
2019-01-11T05:06:49.460Z,82.82
2019-01-11T05:09:16.833Z,82.45
2019-01-11T05:11:44.180Z,82.31
2019-01-11T05:14:11.596Z,81.69
2019-01-11T05:16:39.602Z,81.42
2019-01-11T05:19:07.263Z,81.40
2019-01-11T05:21:34.931Z,81.95
2019-01-11T05:24:02.271Z,81.72
2019-01-11T05:26:29.618Z,81.38
2019-01-11T05:28:56.996Z,82.87
2019-01-11T05:31:24.361Z,82.00
2019-01-11T05:33:51.865Z,82.27
2019-01-11T05:36:19.383Z,82.91
2019-01-11T05:38:46.836Z,82.47
2019-01-11T05:41:14.218Z,82.82
2019-01-11T05:43:41.603Z,82.92
2019-01-11T05:46:08.969Z,83.52
2019-01-11T05:48:36.471Z,83.39
2019-01-11T05:51:03.825Z,84.02
2019-01-11T05:53:31.248Z,83.19
2019-01-11T05:56:02.861Z,82.92
2019-01-11T05:58:31.730Z,82.59
2019-01-11T06:00:59.197Z,82.94
2019-01-11T06:03:26.600Z,82.70
2019-01-11T06:05:53.936Z,82.93
2019-01-11T06:08:21.328Z,82.90
2019-01-11T06:10:48.685Z,82.56
2019-01-11T06:13:16.097Z,83.03
2019-01-11T06:15:43.463Z,82.58
2019-01-11T06:18:10.865Z,82.71
2019-01-11T06:20:38.203Z,83.05
2019-01-11T06:23:05.609Z,82.90
2019-01-11T06:25:33.252Z,83.06
2019-01-11T06:28:00.982Z,82.85
2019-01-11T06:30:28.317Z,82.61
2019-01-11T06:32:55.691Z,83.48
2019-01-11T06:35:23.078Z,82.64
2019-01-11T06:37:50.938Z,82.93
2019-01-11T06:40:18.279Z,82.56
2019-01-11T06:42:45.963Z,82.50
2019-01-11T06:45:13.350Z,83.20
2019-01-11T06:47:40.729Z,83.41
2019-01-11T06:50:09.839Z,83.38
2019-01-11T06:52:37.198Z,83.32
2019-01-11T06:55:04.947Z,82.06
2019-01-11T06:57:32.399Z,82.11
2019-01-11T06:59:59.754Z,82.94
2019-01-11T07:02:27.197Z,82.70
2019-01-11T07:04:54.531Z,82.98
2019-01-11T07:07:21.895Z,82.54
2019-01-11T07:09:49.254Z,82.64
2019-01-11T07:12:16.614Z,82.98
2019-01-11T07:14:44.122Z,83.20
2019-01-11T07:17:11.466Z,83.24
2019-01-11T07:19:38.939Z,83.64
2019-01-11T07:22:06.468Z,83.44
2019-01-11T07:24:34.391Z,82.93
2019-01-11T07:27:01.750Z,82.48
2019-01-11T07:29:29.110Z,83.06
2019-01-11T07:31:59.738Z,83.38
2019-01-11T07:34:27.134Z,83.36
2019-01-11T07:36:55.853Z,82.69
2019-01-11T07:39:27.687Z,82.82
2019-01-11T07:41:55.148Z,83.29
2019-01-11T07:44:22.762Z,82.77
2019-01-11T07:46:50.110Z,83.45
2019-01-11T07:49:23.015Z,82.86
2019-01-11T07:51:46.767Z,82.98
2019-01-11T07:54:14.147Z,82.81
2019-01-11T07:56:41.754Z,82.49
2019-01-11T07:59:09.170Z,81.81
2019-01-11T08:01:36.633Z,81.48
2019-01-11T08:04:04.676Z,81.82
2019-01-11T08:06:32.106Z,81.67
2019-01-11T08:08:59.505Z,81.70
2019-01-11T08:11:26.960Z,82.00
2019-01-11T08:13:54.396Z,82.32
2019-01-11T08:16:21.758Z,81.81
2019-01-11T08:18:49.188Z,82.52
2019-01-11T08:21:16.645Z,82.18
2019-01-11T08:23:44.026Z,81.96
2019-01-11T08:26:11.389Z,82.29
2019-01-11T08:28:38.830Z,81.80
2019-01-11T08:31:06.255Z,81.93
2019-01-11T08:33:33.661Z,82.01
2019-01-11T08:36:01.435Z,81.87
2019-01-11T08:38:28.902Z,81.57
2019-01-11T08:40:56.287Z,81.52
2019-01-11T08:43:23.638Z,82.14
2019-01-11T08:45:51.019Z,82.00
2019-01-11T08:48:18.387Z,82.20
2019-01-11T08:50:46.470Z,82.35
2019-01-11T08:53:13.818Z,81.82
2019-01-11T08:55:41.194Z,83.03
2019-01-11T08:58:08.574Z,82.33
2019-01-11T09:00:35.929Z,82.41
2019-01-11T09:03:03.311Z,82.51
2019-01-11T09:05:30.687Z,82.61
2019-01-11T09:07:58.042Z,81.89
2019-01-11T09:10:25.424Z,82.19
2019-01-11T09:12:52.762Z,81.96
2019-01-11T09:15:20.275Z,81.79
2019-01-11T09:18:16.311Z,81.82
2019-01-11T09:20:43.768Z,81.61
2019-01-11T09:23:11.310Z,81.05
2019-01-11T09:25:38.691Z,80.71
2019-01-11T09:28:06.061Z,80.03
2019-01-11T09:30:33.675Z,79.45
2019-01-11T09:33:01.022Z,80.21
2019-01-11T09:35:28.366Z,79.98
2019-01-11T09:37:55.835Z,80.21
2019-01-11T09:40:23.194Z,79.96
2019-01-11T09:42:50.577Z,80.36
2019-01-11T09:45:18.011Z,80.17
2019-01-11T09:47:45.694Z,79.30
2019-01-11T09:50:13.160Z,79.67
2019-01-11T09:52:40.550Z,79.71
2019-01-11T09:55:07.994Z,79.31
2019-01-11T09:57:35.370Z,80.13
2019-01-11T10:00:03.766Z,79.12
2019-01-11T10:02:49.119Z,79.31
2019-01-11T10:05:16.475Z,79.88
2019-01-11T10:07:43.859Z,78.88
2019-01-11T10:10:12.534Z,79.40
2019-01-11T10:12:39.899Z,79.07
2019-01-11T10:15:08.226Z,78.47
2019-01-11T10:17:35.590Z,79.36
2019-01-11T10:20:03.977Z,78.41
2019-01-11T10:22:31.338Z,78.71
2019-01-11T10:24:58.730Z,79.06
2019-01-11T10:27:26.195Z,78.11
2019-01-11T10:29:53.639Z,77.61
2019-01-11T10:32:21.011Z,77.51
2019-01-11T10:34:48.351Z,77.96
2019-01-11T10:37:15.766Z,78.32
2019-01-11T10:39:43.127Z,78.39
2019-01-11T10:42:10.490Z,77.22
2019-01-11T10:44:37.878Z,77.13
2019-01-11T10:47:05.262Z,78.23
2019-01-11T10:49:32.712Z,77.45
2019-01-11T10:52:00.171Z,76.35
2019-01-11T10:54:47.017Z,77.56
2019-01-11T10:57:14.387Z,77.09
2019-01-11T10:59:41.758Z,77.12
2019-01-11T11:02:09.155Z,76.75
2019-01-11T11:04:36.643Z,77.51
2019-01-11T11:07:04.115Z,77.09
2019-01-11T11:09:31.494Z,76.47
2019-01-11T11:11:58.846Z,76.33
2019-01-11T11:14:26.216Z,76.42
2019-01-11T11:16:53.558Z,77.37
2019-01-11T11:19:20.944Z,76.69
2019-01-11T11:21:48.368Z,77.48
2019-01-11T11:24:15.940Z,76.54
2019-01-11T11:26:43.336Z,75.99
2019-01-11T11:29:11.115Z,75.86
2019-01-11T11:31:38.479Z,75.85
2019-01-11T11:34:05.849Z,76.18
2019-01-11T11:36:33.310Z,77.28
2019-01-11T11:39:00.776Z,77.25
2019-01-11T11:41:28.146Z,76.96
2019-01-11T11:43:55.502Z,77.43
2019-01-11T11:46:22.898Z,78.37
2019-01-11T11:48:50.267Z,76.91
2019-01-11T11:51:17.941Z,77.21
2019-01-11T11:53:45.371Z,78.35
2019-01-11T11:56:12.719Z,77.53
2019-01-11T11:58:40.122Z,77.76
2019-01-11T12:01:07.786Z,78.39
2019-01-11T12:03:35.141Z,77.82
2019-01-11T12:06:02.531Z,77.60
2019-01-11T12:08:29.898Z,77.66
2019-01-11T12:10:57.522Z,77.91
2019-01-11T12:13:24.911Z,78.00
2019-01-11T12:15:52.290Z,77.68
2019-01-11T12:18:19.684Z,77.24
2019-01-11T12:20:47.081Z,78.24
2019-01-11T12:23:14.495Z,77.60
2019-01-11T12:25:41.922Z,77.67
2019-01-11T12:28:09.307Z,77.79
2019-01-11T12:30:36.675Z,77.55
2019-01-11T12:33:04.084Z,77.32
2019-01-11T12:35:31.482Z,78.24
2019-01-11T12:37:58.878Z,77.14
2019-01-11T12:40:26.273Z,77.49
2019-01-11T12:42:53.658Z,76.73
2019-01-11T12:45:21.133Z,76.56
2019-01-11T12:47:48.524Z,77.87
2019-01-11T12:50:17.670Z,77.55
2019-01-11T12:52:45.043Z,77.07
2019-01-11T12:55:12.404Z,77.39
2019-01-11T12:57:39.798Z,77.90
2019-01-11T13:00:08.422Z,77.16
2019-01-11T13:02:35.861Z,77.44
2019-01-11T13:05:04.388Z,77.39
2019-01-11T13:07:31.818Z,77.24
2019-01-11T13:09:59.312Z,78.02
2019-01-11T13:12:26.682Z,78.36
2019-01-11T13:14:54.063Z,78.05
2019-01-11T13:17:21.462Z,78.04
2019-01-11T13:19:48.845Z,78.59
2019-01-11T13:22:16.185Z,77.93
2019-01-11T13:24:43.630Z,78.11
2019-01-11T13:27:11.087Z,78.02
2019-01-11T13:29:41.190Z,78.08
2019-01-11T13:32:08.599Z,78.22
2019-01-11T13:34:35.988Z,77.49
2019-01-11T13:37:03.577Z,78.27
2019-01-11T13:39:30.942Z,77.88
2019-01-11T13:41:58.350Z,78.13
2019-01-11T13:44:25.847Z,78.35
2019-01-11T13:46:53.213Z,78.65
2019-01-11T13:49:20.622Z,79.59
2019-01-11T13:51:48.083Z,78.94
2019-01-11T13:54:15.551Z,78.97
2019-01-11T13:56:43.217Z,78.59
2019-01-11T13:59:10.656Z,78.94
2019-01-11T14:01:38.074Z,78.64
2019-01-11T14:04:05.539Z,78.91
2019-01-11T14:06:33.223Z,79.20
2019-01-11T14:09:00.592Z,78.71
2019-01-11T14:11:27.986Z,79.49
2019-01-11T14:13:55.382Z,79.64
2019-01-11T14:16:22.733Z,80.03
2019-01-11T14:18:50.348Z,79.99
2019-01-11T14:21:17.902Z,80.37
2019-01-11T14:23:45.347Z,80.17
2019-01-11T14:26:12.783Z,80.55
2019-01-11T14:28:40.170Z,80.71
2019-01-11T14:31:07.544Z,80.96
2019-01-11T14:33:34.930Z,80.79
2019-01-11T14:36:02.429Z,80.77
2019-01-11T14:38:29.782Z,81.48
2019-01-11T14:40:57.154Z,81.18
2019-01-11T14:43:24.530Z,81.74
2019-01-11T14:45:51.987Z,81.85
2019-01-11T14:48:19.390Z,81.80
2019-01-11T14:50:46.758Z,82.27
2019-01-11T14:53:14.142Z,82.73
2019-01-11T14:55:41.610Z,82.75
2019-01-11T14:58:09.106Z,82.79
2019-01-11T15:00:36.586Z,83.01
2019-01-11T15:03:03.948Z,83.57
2019-01-11T15:05:31.329Z,83.55
2019-01-11T15:07:58.726Z,83.70
2019-01-11T15:10:26.550Z,83.64
2019-01-11T15:12:53.938Z,83.80
2019-01-11T15:15:21.387Z,84.00
2019-01-11T15:17:49.014Z,84.33
2019-01-11T15:20:17.269Z,84.38
2019-01-11T15:22:44.784Z,84.62
2019-01-11T15:25:12.287Z,84.76
2019-01-11T15:27:39.709Z,84.92
2019-01-11T15:30:08.945Z,84.85
2019-01-11T15:32:36.329Z,85.13
2019-01-11T15:35:04.232Z,85.43
2019-01-11T15:37:31.682Z,85.32
2019-01-11T15:39:59.145Z,85.83
2019-01-11T15:42:26.547Z,85.73
2019-01-11T15:44:53.939Z,86.12
2019-01-11T15:47:21.384Z,86.53
2019-01-11T15:49:48.812Z,86.48
2019-01-11T15:52:16.177Z,86.36
2019-01-11T15:54:43.587Z,86.55
2019-01-11T15:57:11.052Z,86.71
2019-01-11T15:59:57.004Z,86.90
2019-01-11T16:02:24.427Z,86.94
2019-01-11T16:04:55.215Z,87.18
2019-01-11T16:07:22.648Z,87.25
2019-01-11T16:09:59.458Z,87.69
2019-01-11T16:12:41.498Z,87.78
2019-01-11T16:15:12.371Z,87.79
2019-01-11T16:17:39.751Z,88.14
2019-01-11T16:20:08.104Z,88.16
2019-01-11T16:22:39.582Z,88.25
2019-01-11T16:25:05.024Z,88.33
2019-01-11T16:27:32.478Z,88.34
2019-01-11T16:29:59.855Z,88.16
2019-01-11T16:32:27.306Z,88.39
2019-01-11T16:34:54.728Z,88.39
2019-01-11T16:37:22.208Z,88.37
2019-01-11T16:39:49.743Z,88.50
2019-01-11T16:42:17.206Z,88.66
2019-01-11T16:44:44.606Z,88.72
2019-01-11T16:47:12.059Z,88.78
2019-01-11T16:49:39.469Z,88.89
2019-01-11T16:52:07.090Z,88.81
2019-01-11T16:54:34.498Z,88.77
2019-01-11T16:57:01.892Z,88.81
2019-01-11T16:59:29.308Z,88.79
2019-01-11T17:01:56.683Z,88.90
2019-01-11T17:04:24.428Z,88.96
2019-01-11T17:06:51.886Z,88.88
2019-01-11T17:09:19.420Z,88.96
2019-01-11T17:11:46.922Z,89.01
2019-01-11T17:14:14.298Z,88.78
2019-01-11T17:16:41.744Z,88.77
2019-01-11T17:19:09.218Z,88.88
2019-01-11T17:21:36.681Z,88.87
2019-01-11T17:24:04.475Z,88.62
2019-01-11T17:26:31.855Z,88.59
2019-01-11T17:28:59.237Z,88.65
2019-01-11T17:31:26.667Z,88.69
2019-01-11T17:33:54.130Z,88.85
2019-01-11T17:36:21.495Z,88.77
2019-01-11T17:38:48.902Z,88.84
2019-01-11T17:41:16.320Z,88.93
2019-01-11T17:43:43.806Z,88.76
2019-01-11T17:46:11.187Z,88.75
2019-01-11T17:48:39.141Z,88.65
2019-01-11T17:51:06.773Z,88.54
2019-01-11T17:53:34.186Z,88.66
2019-01-11T17:56:01.647Z,88.79
2019-01-11T17:58:29.146Z,88.69
2019-01-11T18:00:56.614Z,88.52
2019-01-11T18:03:25.358Z,88.60
2019-01-11T18:05:52.900Z,88.63
2019-01-11T18:08:20.405Z,88.67
2019-01-11T18:10:49.038Z,88.76
2019-01-11T18:13:16.423Z,88.89
2019-01-11T18:15:43.919Z,88.94
2019-01-11T18:18:11.386Z,88.88
2019-01-11T18:20:38.987Z,89.05
2019-01-11T18:23:07.078Z,89.28
2019-01-11T18:25:34.847Z,89.20
2019-01-11T18:28:02.295Z,89.10
2019-01-11T18:30:29.707Z,89.16
2019-01-11T18:32:57.087Z,89.01
2019-01-11T18:35:24.487Z,89.04
2019-01-11T18:37:51.837Z,89.21
2019-01-11T18:40:23.206Z,89.21
2019-01-11T18:42:50.684Z,89.31
2019-01-11T18:45:18.185Z,89.33
2019-01-11T18:47:45.585Z,89.35
2019-01-11T18:50:14.521Z,89.45
2019-01-11T18:52:42.014Z,89.42
2019-01-11T18:55:09.399Z,89.53
2019-01-11T18:57:36.759Z,89.59
2019-01-11T19:00:05.682Z,89.36
2019-01-11T19:02:33.152Z,89.51
2019-01-11T19:05:00.663Z,89.38
2019-01-11T19:07:28.142Z,89.47
2019-01-11T19:09:55.510Z,89.45
2019-01-11T19:12:22.930Z,89.48
2019-01-11T19:14:50.388Z,89.46
2019-01-11T19:17:17.779Z,89.39
2019-01-11T19:19:45.210Z,89.14
2019-01-11T19:22:12.615Z,89.35
2019-01-11T19:24:40.004Z,89.52
2019-01-11T19:27:07.421Z,89.54
2019-01-11T19:29:34.898Z,89.67
2019-01-11T19:32:02.322Z,89.54
2019-01-11T19:34:29.827Z,89.43
2019-01-11T19:36:57.326Z,89.58
2019-01-11T19:39:24.748Z,89.70
2019-01-11T19:41:52.358Z,89.76
2019-01-11T19:44:19.897Z,89.65
2019-01-11T19:46:47.431Z,89.67
2019-01-11T19:49:14.827Z,89.64
2019-01-11T19:51:42.263Z,89.77
2019-01-11T19:54:09.750Z,89.59
2019-01-11T19:56:37.238Z,89.62
2019-01-11T19:59:04.674Z,89.70
2019-01-11T20:01:32.181Z,89.85
2019-01-11T20:03:59.703Z,89.92
2019-01-11T20:06:27.107Z,89.57
2019-01-11T20:08:54.546Z,89.80
2019-01-11T20:11:22.014Z,89.82
2019-01-11T20:13:49.532Z,89.71
2019-01-11T20:16:16.931Z,89.74
2019-01-11T20:18:44.344Z,89.68
2019-01-11T20:21:11.832Z,89.35
2019-01-11T20:23:39.324Z,89.23
2019-01-11T20:26:06.698Z,89.40
2019-01-11T20:28:34.082Z,89.40
2019-01-11T20:31:01.540Z,89.34
2019-01-11T20:33:28.991Z,89.14
2019-01-11T20:35:56.490Z,89.17
2019-01-11T20:38:23.863Z,89.11
2019-01-11T20:40:51.265Z,89.26
2019-01-11T20:43:18.720Z,89.24
2019-01-11T20:45:46.141Z,89.02
2019-01-11T20:48:13.699Z,88.97
2019-01-11T20:50:41.114Z,88.85
2019-01-11T20:53:08.639Z,89.10
2019-01-11T20:55:36.123Z,89.00
2019-01-11T20:58:03.686Z,88.86
2019-01-11T21:00:32.386Z,88.86
2019-01-11T21:02:59.820Z,89.01
2019-01-11T21:05:27.355Z,89.09
2019-01-11T21:07:54.773Z,89.21
2019-01-11T21:10:22.327Z,89.20
2019-01-11T21:12:49.747Z,89.14
2019-01-11T21:15:17.334Z,89.18
2019-01-11T21:17:44.699Z,89.45
2019-01-11T21:20:13.127Z,89.40
2019-01-11T21:22:40.500Z,89.49
2019-01-11T21:25:08.919Z,89.34
2019-01-11T21:27:36.994Z,89.28
2019-01-11T21:30:06.043Z,89.25
2019-01-11T21:32:33.450Z,89.38
2019-01-11T21:35:00.970Z,89.45
2019-01-11T21:37:28.514Z,89.47
2019-01-11T21:39:55.987Z,89.44
2019-01-11T21:42:23.408Z,89.43
2019-01-11T21:44:50.875Z,89.39
2019-01-11T21:47:18.277Z,89.09
2019-01-11T21:49:45.666Z,89.18
2019-01-11T21:52:13.055Z,89.31
2019-01-11T21:54:40.447Z,89.29
2019-01-11T21:57:07.822Z,89.17
2019-01-11T21:59:35.263Z,89.15
2019-01-11T22:02:02.721Z,89.26
2019-01-11T22:04:30.179Z,89.05
2019-01-11T22:06:57.559Z,88.93
2019-01-11T22:09:24.978Z,88.84
2019-01-11T22:11:52.352Z,88.90
2019-01-11T22:14:19.780Z,89.07
2019-01-11T22:16:47.272Z,88.96
2019-01-11T22:19:14.704Z,88.96
2019-01-11T22:21:42.173Z,89.10
2019-01-11T22:24:09.574Z,88.87
2019-01-11T22:26:36.981Z,88.86
2019-01-11T22:29:04.395Z,88.90
2019-01-11T22:31:31.852Z,89.04
2019-01-11T22:33:59.274Z,88.78
2019-01-11T22:36:26.639Z,88.59
2019-01-11T22:38:54.045Z,88.41
2019-01-11T22:41:24.588Z,88.62
2019-01-11T22:43:52.004Z,88.60
2019-01-11T22:46:19.471Z,88.69
2019-01-11T22:48:46.945Z,88.60
2019-01-11T22:51:14.310Z,88.53
2019-01-11T22:53:41.710Z,88.36
2019-01-11T22:56:09.102Z,88.20
2019-01-11T22:58:36.463Z,88.48
2019-01-11T23:01:38.751Z,88.71
2019-01-11T23:04:06.113Z,88.95
2019-01-11T23:06:43.095Z,89.20
2019-01-11T23:09:11.618Z,89.71
2019-01-11T23:12:04.592Z,89.94
2019-01-11T23:14:31.971Z,90.00
2019-01-11T23:17:08.418Z,90.00
2019-01-11T23:19:35.831Z,90.04
2019-01-11T23:22:03.198Z,89.97
2019-01-11T23:24:30.613Z,90.13
2019-01-11T23:26:58.009Z,90.21
2019-01-11T23:29:25.375Z,90.32
2019-01-11T23:31:52.874Z,90.48
2019-01-11T23:34:20.220Z,90.66
2019-01-11T23:36:47.990Z,90.82
2019-01-11T23:39:15.360Z,90.92
2019-01-11T23:41:42.726Z,90.99
2019-01-11T23:44:10.097Z,91.20
2019-01-11T23:46:37.480Z,91.32
2019-01-11T23:49:04.877Z,91.40
2019-01-11T23:51:32.246Z,91.36
2019-01-11T23:53:59.740Z,91.34
2019-01-11T23:56:27.142Z,91.25
2019-01-11T23:58:54.503Z,91.30
